createdAt,value
2016-11-20T00:00:40.448Z,658.63
2016-11-20T00:01:40.455Z,658.81
2016-11-20T00:02:40.447Z,657.74
2016-11-20T00:03:40.467Z,657.04
2016-11-20T00:04:40.466Z,656.49
2016-11-20T00:05:40.453Z,656.13
2016-11-20T00:06:40.549Z,655.35
2016-11-20T00:07:40.453Z,655.29
2016-11-20T00:08:40.466Z,654.41
2016-11-20T00:09:40.479Z,653.85
2016-11-20T00:10:40.467Z,653.65
2016-11-20T00:11:40.461Z,653.59
2016-11-20T00:12:40.459Z,653.61
2016-11-20T00:13:40.461Z,653.23
2016-11-20T00:14:40.584Z,652.44
2016-11-20T00:15:40.464Z,653.34
2016-11-20T00:16:40.471Z,653.72
2016-11-20T00:17:40.471Z,653.14
2016-11-20T00:18:40.466Z,652.57
2016-11-20T00:19:40.472Z,652.19
2016-11-20T00:20:40.504Z,652.94
2016-11-20T00:21:40.481Z,651.99
2016-11-20T00:22:40.524Z,652.32
2016-11-20T00:23:40.472Z,652.47
2016-11-20T00:24:40.480Z,653
2016-11-20T00:25:40.533Z,652.58
2016-11-20T00:26:40.517Z,653.14
2016-11-20T00:27:40.618Z,653.67
2016-11-20T00:28:40.464Z,653.6
2016-11-20T00:29:40.485Z,654.3
2016-11-20T00:30:40.500Z,654.61
2016-11-20T00:31:40.493Z,654.26
2016-11-20T00:32:40.481Z,654.95
2016-11-20T00:33:40.478Z,654.58
2016-11-20T00:34:40.468Z,655.13
2016-11-20T00:35:40.651Z,654.75
2016-11-20T00:36:40.554Z,655.84
2016-11-20T00:37:40.500Z,655.85
2016-11-20T00:38:40.468Z,655.95
2016-11-20T00:39:40.485Z,656.13
2016-11-20T00:40:40.494Z,655.93
2016-11-20T00:41:40.485Z,655.72
2016-11-20T00:42:40.503Z,655.33
2016-11-20T00:43:40.571Z,654.91
2016-11-20T00:44:40.491Z,655.15
2016-11-20T00:45:40.500Z,655.16
2016-11-20T00:46:40.492Z,654.4
2016-11-20T00:47:40.490Z,654.58
2016-11-20T00:48:40.484Z,654.37
2016-11-20T00:49:40.488Z,653.78
2016-11-20T00:50:40.510Z,653.43
2016-11-20T00:51:40.563Z,653.75
2016-11-20T00:52:40.498Z,654.09
2016-11-20T00:53:40.504Z,654.2
2016-11-20T00:54:40.489Z,653.15
2016-11-20T00:55:40.552Z,652.91
2016-11-20T00:56:40.516Z,652.51
2016-11-20T00:57:40.534Z,651.65
2016-11-20T00:58:40.500Z,650.92
2016-11-20T00:59:40.494Z,650.97
2016-11-20T01:00:40.711Z,651.11
2016-11-20T01:01:40.524Z,650.45
2016-11-20T01:02:40.505Z,650.79
2016-11-20T01:03:40.492Z,650.18
2016-11-20T01:04:40.506Z,649.1
2016-11-20T01:05:40.502Z,649.34
2016-11-20T01:06:40.549Z,648.93
2016-11-20T01:07:40.503Z,648.63
2016-11-20T01:08:40.499Z,649.52
2016-11-20T01:09:40.484Z,648.24
2016-11-20T01:10:40.508Z,649.66
2016-11-20T01:11:40.637Z,649.12
2016-11-20T01:12:40.512Z,649.42
2016-11-20T01:13:40.515Z,649.48
2016-11-20T01:14:40.508Z,649.08
2016-11-20T01:15:40.505Z,649.75
2016-11-20T01:16:40.526Z,650.15
2016-11-20T01:17:40.511Z,650.68
2016-11-20T01:18:40.502Z,651.51
2016-11-20T01:19:40.515Z,652.57
2016-11-20T01:20:40.500Z,652.91
2016-11-20T01:21:40.524Z,653.44
2016-11-20T01:22:40.521Z,654.63
2016-11-20T01:23:40.523Z,654.96
2016-11-20T01:24:40.512Z,655.26
2016-11-20T01:25:40.521Z,656.32
2016-11-20T01:26:40.525Z,656.59
2016-11-20T01:27:40.524Z,657.48
2016-11-20T01:28:40.522Z,657.78
2016-11-20T01:29:40.514Z,658.33
2016-11-20T01:30:40.546Z,658.82
2016-11-20T01:31:40.543Z,660.05
2016-11-20T01:32:40.511Z,661.49
2016-11-20T01:33:40.522Z,661.56
2016-11-20T01:34:40.516Z,662.05
2016-11-20T01:35:40.521Z,662.93
2016-11-20T01:36:40.546Z,663.04
2016-11-20T01:37:40.521Z,663.35
2016-11-20T01:38:40.598Z,663.83
2016-11-20T01:39:40.608Z,664.37
2016-11-20T01:40:40.524Z,663.88
2016-11-20T01:41:40.538Z,664.89
2016-11-20T01:42:40.529Z,664.51
2016-11-20T01:43:40.525Z,665.79
2016-11-20T01:44:40.518Z,666.62
2016-11-20T01:45:40.662Z,666.24
2016-11-20T01:46:40.541Z,667.62
2016-11-20T01:47:40.526Z,668.38
2016-11-20T01:48:40.522Z,669.28
2016-11-20T01:49:40.614Z,669.73
2016-11-20T01:50:40.531Z,670.5
2016-11-20T01:51:40.555Z,672.25
2016-11-20T01:52:40.541Z,672.19
2016-11-20T01:53:40.547Z,672.56
2016-11-20T01:54:40.572Z,674.27
2016-11-20T01:55:40.535Z,674.59
2016-11-20T01:56:40.550Z,675.95
2016-11-20T01:57:40.548Z,676.02
2016-11-20T01:58:40.547Z,677.37
2016-11-20T01:59:40.535Z,678.24
2016-11-20T02:00:40.534Z,679.6
2016-11-20T02:01:40.633Z,679.73
2016-11-20T02:02:40.537Z,680.59
2016-11-20T02:03:40.564Z,681.12
2016-11-20T02:04:40.540Z,681.59
2016-11-20T02:05:40.534Z,682.6
2016-11-20T02:06:40.552Z,683.24
2016-11-20T02:07:40.561Z,683.06
2016-11-20T02:08:40.537Z,683.67
2016-11-20T02:09:40.534Z,684.22
2016-11-20T02:10:40.696Z,684.12
2016-11-20T02:11:40.542Z,684.65
2016-11-20T02:12:40.571Z,685.33
2016-11-20T02:13:40.546Z,685.09
2016-11-20T02:14:40.571Z,685.75
2016-11-20T02:15:40.546Z,685.53
2016-11-20T02:16:40.553Z,687.07
2016-11-20T02:17:40.567Z,687.03
2016-11-20T02:18:40.551Z,687.51
2016-11-20T02:19:40.559Z,688.17
2016-11-20T02:20:40.569Z,688.79
2016-11-20T02:21:40.590Z,689.16
2016-11-20T02:22:40.609Z,689.87
2016-11-20T02:23:40.557Z,689.7
2016-11-20T02:24:40.565Z,690.05
2016-11-20T02:25:40.545Z,691.47
2016-11-20T02:26:40.561Z,691.26
2016-11-20T02:27:40.599Z,691.78
2016-11-20T02:28:40.549Z,692.12
2016-11-20T02:29:40.559Z,692.07
2016-11-20T02:30:40.562Z,692.62
2016-11-20T02:31:40.553Z,693.14
2016-11-20T02:32:40.578Z,693.56
2016-11-20T02:33:40.628Z,694.31
2016-11-20T02:34:40.565Z,694.59
2016-11-20T02:35:40.569Z,695.6
2016-11-20T02:36:40.558Z,696.29
2016-11-20T02:37:40.583Z,696.69
2016-11-20T02:38:40.588Z,697.19
2016-11-20T02:39:40.557Z,697.85
2016-11-20T02:40:40.563Z,698.86
2016-11-20T02:41:40.561Z,699.55
2016-11-20T02:42:40.665Z,700.05
2016-11-20T02:43:40.584Z,700.89
2016-11-20T02:44:40.574Z,702.22
2016-11-20T02:45:40.569Z,702.82
2016-11-20T02:46:40.573Z,703.16
2016-11-20T02:47:40.574Z,703.12
2016-11-20T02:48:40.594Z,704.48
2016-11-20T02:49:40.597Z,705.32
2016-11-20T02:50:40.571Z,705.56
2016-11-20T02:51:40.578Z,706.4
2016-11-20T02:52:40.571Z,706.34
2016-11-20T02:53:40.582Z,707.32
2016-11-20T02:54:40.571Z,707.88
2016-11-20T02:55:40.859Z,708.83
2016-11-20T02:56:40.587Z,709.29
2016-11-20T02:57:40.576Z,709.97
2016-11-20T02:58:40.597Z,710.64
2016-11-20T02:59:40.581Z,710.55
2016-11-20T03:00:40.588Z,711.28
2016-11-20T03:01:40.659Z,711.43
2016-11-20T03:02:40.588Z,712.55
2016-11-20T03:03:40.578Z,712.99
2016-11-20T03:04:40.585Z,712.96
2016-11-20T03:05:40.581Z,712.96
2016-11-20T03:06:40.587Z,713.18
2016-11-20T03:07:40.588Z,713.32
2016-11-20T03:08:40.610Z,713.25
2016-11-20T03:09:40.584Z,713.39
2016-11-20T03:10:40.582Z,713.22
2016-11-20T03:11:40.647Z,713.33
2016-11-20T03:12:40.592Z,713.65
2016-11-20T03:13:40.610Z,713.68
2016-11-20T03:14:40.592Z,713.62
2016-11-20T03:15:40.601Z,713.28
2016-11-20T03:16:40.791Z,713.62
2016-11-20T03:17:40.604Z,713.36
2016-11-20T03:18:40.595Z,713.4
2016-11-20T03:19:40.610Z,713.61
2016-11-20T03:20:40.591Z,713.52
2016-11-20T03:21:40.586Z,714.08
2016-11-20T03:22:40.586Z,714.2
2016-11-20T03:23:40.596Z,714.31
2016-11-20T03:24:40.592Z,713.93
2016-11-20T03:25:40.604Z,714.52
2016-11-20T03:26:40.604Z,714.33
2016-11-20T03:27:40.605Z,714.01
2016-11-20T03:28:40.598Z,713.81
2016-11-20T03:29:40.596Z,714.13
2016-11-20T03:30:40.778Z,713.63
2016-11-20T03:31:40.605Z,714.27
2016-11-20T03:32:40.599Z,714.36
2016-11-20T03:33:40.636Z,714.06
2016-11-20T03:34:40.677Z,713.71
2016-11-20T03:35:40.607Z,713.57
2016-11-20T03:36:40.610Z,713.73
2016-11-20T03:37:40.734Z,714.12
2016-11-20T03:38:40.767Z,713.77
2016-11-20T03:39:40.606Z,713.67
2016-11-20T03:40:40.611Z,713.58
2016-11-20T03:41:40.601Z,713.61
2016-11-20T03:42:40.601Z,713.14
2016-11-20T03:43:40.613Z,712.99
2016-11-20T03:44:40.614Z,713.24
2016-11-20T03:45:40.606Z,713.29
2016-11-20T03:46:40.617Z,713.23
2016-11-20T03:47:40.613Z,713.49
2016-11-20T03:48:40.878Z,713.13
2016-11-20T03:49:40.622Z,713.04
2016-11-20T03:50:40.619Z,713.54
2016-11-20T03:51:40.761Z,714.07
2016-11-20T03:52:40.615Z,713.79
2016-11-20T03:53:40.609Z,713.11
2016-11-20T03:54:40.616Z,712.91
2016-11-20T03:55:40.617Z,712.34
2016-11-20T03:56:40.640Z,711.97
2016-11-20T03:57:40.615Z,710.57
2016-11-20T03:58:40.622Z,710.01
2016-11-20T03:59:40.616Z,709.02
2016-11-20T04:00:40.625Z,707.23
2016-11-20T04:01:40.619Z,706.26
2016-11-20T04:02:40.631Z,704.63
2016-11-20T04:03:40.674Z,702.54
2016-11-20T04:04:40.655Z,699.98
2016-11-20T04:05:40.641Z,697.74
2016-11-20T04:06:40.644Z,695.69
2016-11-20T04:07:40.634Z,693.41
2016-11-20T04:08:40.629Z,691.96
2016-11-20T04:09:40.627Z,689.8
2016-11-20T04:10:40.634Z,687.38
2016-11-20T04:11:40.637Z,685.2
2016-11-20T04:12:40.623Z,682.86
2016-11-20T04:13:40.628Z,681.04
2016-11-20T04:14:40.634Z,679.45
2016-11-20T04:15:40.637Z,678.06
2016-11-20T04:16:40.679Z,676.89
2016-11-20T04:17:40.740Z,674.99
2016-11-20T04:18:40.691Z,674.71
2016-11-20T04:19:40.720Z,674.45
2016-11-20T04:20:40.641Z,674.42
2016-11-20T04:21:40.630Z,674.71
2016-11-20T04:22:40.770Z,674.7
2016-11-20T04:23:40.651Z,675.88
2016-11-20T04:24:40.643Z,676.54
2016-11-20T04:25:40.634Z,677.41
2016-11-20T04:26:40.649Z,678.74
2016-11-20T04:27:40.656Z,680.13
2016-11-20T04:28:40.661Z,681.81
2016-11-20T04:29:40.636Z,683.27
2016-11-20T04:30:40.630Z,683.33
2016-11-20T04:31:40.649Z,685.1
2016-11-20T04:32:40.654Z,687.82
2016-11-20T04:33:40.653Z,688.44
2016-11-20T04:34:40.647Z,689.94
2016-11-20T04:35:40.642Z,691.9
2016-11-20T04:36:40.721Z,692.64
2016-11-20T04:37:40.734Z,693.8
2016-11-20T04:38:40.636Z,695.35
2016-11-20T04:39:40.646Z,696.34
2016-11-20T04:40:40.638Z,697.63
2016-11-20T04:41:40.642Z,699.77
2016-11-20T04:42:40.649Z,700.68
2016-11-20T04:43:40.658Z,701.99
2016-11-20T04:44:40.697Z,703.75
2016-11-20T04:45:40.668Z,704.86
2016-11-20T04:46:40.656Z,706.34
2016-11-20T04:47:40.658Z,707.63
2016-11-20T04:48:40.658Z,708.8
2016-11-20T04:49:40.650Z,710.23
2016-11-20T04:50:40.658Z,711.18
2016-11-20T04:51:40.655Z,712.69
2016-11-20T04:52:40.652Z,714.05
2016-11-20T04:53:40.656Z,715.59
2016-11-20T04:54:40.649Z,716.6
2016-11-20T04:55:40.656Z,717.44
2016-11-20T04:56:40.655Z,718.92
2016-11-20T04:57:40.661Z,719.51
2016-11-20T04:58:40.664Z,720.05
2016-11-20T04:59:40.658Z,720.28
2016-11-20T05:00:40.657Z,720.62
2016-11-20T05:01:40.655Z,720.8
2016-11-20T05:02:40.657Z,721.35
2016-11-20T05:03:40.674Z,721.67
2016-11-20T05:04:40.664Z,721.69
2016-11-20T05:05:40.661Z,720.87
2016-11-20T05:06:40.664Z,720.99
2016-11-20T05:07:40.669Z,720.82
2016-11-20T05:08:40.667Z,720.65
2016-11-20T05:09:40.662Z,719.72
2016-11-20T05:10:40.654Z,719.92
2016-11-20T05:11:40.670Z,719.69
2016-11-20T05:12:40.662Z,719.68
2016-11-20T05:13:40.668Z,720.22
2016-11-20T05:14:40.666Z,719.55
2016-11-20T05:15:40.667Z,720.41
2016-11-20T05:16:40.668Z,719.92
2016-11-20T05:17:40.669Z,720.32
2016-11-20T05:18:40.674Z,721.18
2016-11-20T05:19:40.668Z,721.3
2016-11-20T05:20:40.682Z,721.58
2016-11-20T05:21:40.681Z,722
2016-11-20T05:22:40.687Z,722.44
2016-11-20T05:23:40.678Z,722.59
2016-11-20T05:24:40.684Z,723.62
2016-11-20T05:25:40.665Z,723.81
2016-11-20T05:26:40.671Z,724.19
2016-11-20T05:27:40.673Z,724.82
2016-11-20T05:28:40.677Z,724.87
2016-11-20T05:29:40.684Z,724.94
2016-11-20T05:30:40.684Z,724.89
2016-11-20T05:31:41.420Z,725.56
2016-11-20T05:32:40.685Z,725.85
2016-11-20T05:33:40.684Z,726.16
2016-11-20T05:34:40.684Z,725.91
2016-11-20T05:35:40.699Z,726.33
2016-11-20T05:36:40.678Z,726.19
2016-11-20T05:37:40.682Z,726.82
2016-11-20T05:38:40.674Z,727.04
2016-11-20T05:39:40.703Z,726.75
2016-11-20T05:40:40.695Z,728.35
2016-11-20T05:41:40.693Z,728.27
2016-11-20T05:42:40.698Z,729.56
2016-11-20T05:43:40.688Z,729.53
2016-11-20T05:44:40.701Z,729.63
2016-11-20T05:45:40.688Z,730.39
2016-11-20T05:46:40.691Z,731.51
2016-11-20T05:47:40.693Z,731.29
2016-11-20T05:48:40.682Z,732.27
2016-11-20T05:49:40.704Z,732.4
2016-11-20T05:50:40.692Z,732.72
2016-11-20T05:51:40.699Z,732.95
2016-11-20T05:52:40.712Z,732.95
2016-11-20T05:53:40.699Z,733.14
2016-11-20T05:54:40.720Z,733.51
2016-11-20T05:55:40.700Z,733.97
2016-11-20T05:56:40.694Z,733.79
2016-11-20T05:57:40.691Z,734.72
2016-11-20T05:58:40.706Z,735.38
2016-11-20T05:59:40.715Z,736.67
2016-11-20T06:00:40.702Z,737.24
2016-11-20T06:01:40.699Z,738.39
2016-11-20T06:02:40.709Z,740.18
2016-11-20T06:03:40.710Z,741.19
2016-11-20T06:04:40.722Z,742.09
2016-11-20T06:05:40.708Z,743.92
2016-11-20T06:06:40.702Z,745.18
2016-11-20T06:07:40.712Z,746.7
2016-11-20T06:08:40.706Z,747.5
2016-11-20T06:09:40.716Z,749.05
2016-11-20T06:10:40.709Z,750.62
2016-11-20T06:11:40.704Z,751.66
2016-11-20T06:12:40.707Z,752.32
2016-11-20T06:13:40.709Z,753.13
2016-11-20T06:14:40.728Z,754.41
2016-11-20T06:15:40.717Z,756.35
2016-11-20T06:16:40.712Z,757.34
2016-11-20T06:17:40.711Z,758.07
2016-11-20T06:18:40.713Z,759.38
2016-11-20T06:19:40.734Z,759.92
2016-11-20T06:20:40.711Z,760.61
2016-11-20T06:21:40.718Z,761.6
2016-11-20T06:22:40.720Z,761.64
2016-11-20T06:23:40.711Z,762.43
2016-11-20T06:24:40.724Z,763.3
2016-11-20T06:25:40.717Z,763.44
2016-11-20T06:26:40.724Z,764.29
2016-11-20T06:27:40.710Z,764.43
2016-11-20T06:28:40.717Z,765.13
2016-11-20T06:29:40.739Z,765.57
2016-11-20T06:30:40.730Z,766.54
2016-11-20T06:31:40.730Z,767.35
2016-11-20T06:32:40.720Z,766.72
2016-11-20T06:33:40.724Z,767.97
2016-11-20T06:34:40.748Z,768.1
2016-11-20T06:35:40.731Z,768.45
2016-11-20T06:36:40.739Z,768.41
2016-11-20T06:37:40.719Z,768.2
2016-11-20T06:38:40.724Z,767.96
2016-11-20T06:39:40.791Z,767.83
2016-11-20T06:40:40.724Z,767.47
2016-11-20T06:41:40.730Z,766.79
2016-11-20T06:42:40.728Z,766.7
2016-11-20T06:43:40.747Z,766.56
2016-11-20T06:44:41.664Z,764.91
2016-11-20T06:45:40.757Z,764.03
2016-11-20T06:46:40.737Z,762.74
2016-11-20T06:47:40.742Z,763.11
2016-11-20T06:48:40.741Z,763.38
2016-11-20T06:49:40.732Z,762.32
2016-11-20T06:50:40.755Z,762.83
2016-11-20T06:51:40.742Z,762.49
2016-11-20T06:52:40.745Z,762.07
2016-11-20T06:53:40.736Z,763.01
2016-11-20T06:54:40.747Z,762.22
2016-11-20T06:55:40.770Z,762.71
2016-11-20T06:56:40.755Z,763.37
2016-11-20T06:57:40.749Z,763.79
2016-11-20T06:58:40.746Z,763.53
2016-11-20T06:59:40.746Z,764.4
2016-11-20T07:00:40.761Z,765.12
2016-11-20T07:01:40.745Z,765.41
2016-11-20T07:02:40.751Z,766.31
2016-11-20T07:03:40.748Z,766.95
2016-11-20T07:04:40.749Z,768.47
2016-11-20T07:05:40.766Z,769.25
2016-11-20T07:06:40.749Z,770.46
2016-11-20T07:07:40.760Z,771.69
2016-11-20T07:08:40.758Z,773.1
2016-11-20T07:09:40.762Z,773.69
2016-11-20T07:10:40.767Z,776.11
2016-11-20T07:11:40.763Z,777.83
2016-11-20T07:12:40.749Z,779.52
2016-11-20T07:13:40.740Z,780.76
2016-11-20T07:14:40.753Z,782.05
2016-11-20T07:15:40.769Z,783.75
2016-11-20T07:16:40.777Z,784.73
2016-11-20T07:17:40.768Z,786.22
2016-11-20T07:18:40.761Z,787.53
2016-11-20T07:19:40.765Z,788.38
2016-11-20T07:20:40.769Z,790.12
2016-11-20T07:21:40.773Z,790.58
2016-11-20T07:22:40.770Z,792.02
2016-11-20T07:23:40.771Z,793.41
2016-11-20T07:24:40.768Z,794.22
2016-11-20T07:25:40.765Z,794.99
2016-11-20T07:26:40.794Z,795.75
2016-11-20T07:27:40.762Z,796.32
2016-11-20T07:28:40.769Z,796.91
2016-11-20T07:29:40.773Z,798.09
2016-11-20T07:30:40.778Z,798.87
2016-11-20T07:31:40.793Z,800.25
2016-11-20T07:32:40.773Z,801.02
2016-11-20T07:33:40.773Z,802.23
2016-11-20T07:34:40.773Z,803.13
2016-11-20T07:35:40.784Z,804.56
2016-11-20T07:36:40.794Z,805.15
2016-11-20T07:37:40.776Z,805.42
2016-11-20T07:38:40.780Z,806.49
2016-11-20T07:39:40.776Z,807.21
2016-11-20T07:40:40.778Z,807.92
2016-11-20T07:41:40.791Z,808.34
2016-11-20T07:42:40.810Z,808.94
2016-11-20T07:43:40.789Z,809.55
2016-11-20T07:44:40.778Z,809.92
2016-11-20T07:45:40.771Z,810.51
2016-11-20T07:46:40.778Z,811.23
2016-11-20T07:47:40.791Z,811.88
2016-11-20T07:48:40.790Z,812.37
2016-11-20T07:49:40.784Z,812.81
2016-11-20T07:50:40.788Z,813.71
2016-11-20T07:51:40.799Z,814.5
2016-11-20T07:52:40.810Z,815.01
2016-11-20T07:53:40.794Z,816.18
2016-11-20T07:54:40.790Z,817.07
2016-11-20T07:55:40.791Z,817.6
2016-11-20T07:56:40.797Z,818.41
2016-11-20T07:57:40.811Z,818.7
2016-11-20T07:58:40.795Z,819.92
2016-11-20T07:59:40.793Z,821.34
2016-11-20T08:00:40.803Z,822.38
2016-11-20T08:01:40.794Z,822.38
2016-11-20T08:02:40.822Z,822.76
2016-11-20T08:03:40.793Z,823.2
2016-11-20T08:04:40.816Z,822.85
2016-11-20T08:05:40.794Z,823.41
2016-11-20T08:06:40.812Z,823.44
2016-11-20T08:07:40.819Z,823.83
2016-11-20T08:08:40.814Z,823.94
2016-11-20T08:09:40.797Z,824.1
2016-11-20T08:10:40.787Z,824.88
2016-11-20T08:11:40.805Z,825.63
2016-11-20T08:12:40.816Z,826.08
2016-11-20T08:13:40.793Z,826.56
2016-11-20T08:14:40.806Z,827.61
2016-11-20T08:15:40.805Z,828.32
2016-11-20T08:16:40.795Z,828.95
2016-11-20T08:17:40.815Z,830.04
2016-11-20T08:18:40.847Z,830.29
2016-11-20T08:19:40.828Z,831.7
2016-11-20T08:20:40.811Z,832.01
2016-11-20T08:21:40.800Z,832.69
2016-11-20T08:22:40.818Z,833.05
2016-11-20T08:23:40.799Z,834.46
2016-11-20T08:24:40.813Z,834.81
2016-11-20T08:25:40.801Z,835.29
2016-11-20T08:26:40.813Z,835.82
2016-11-20T08:27:40.832Z,836.91
2016-11-20T08:28:40.815Z,837.72
2016-11-20T08:29:40.823Z,838.33
2016-11-20T08:30:40.816Z,838.85
2016-11-20T08:31:40.804Z,838.57
2016-11-20T08:32:40.826Z,838.83
2016-11-20T08:33:40.828Z,838.27
2016-11-20T08:34:40.822Z,838.52
2016-11-20T08:35:40.814Z,838.55
2016-11-20T08:36:40.822Z,837.38
2016-11-20T08:37:40.821Z,836.79
2016-11-20T08:38:40.829Z,835.71
2016-11-20T08:39:40.821Z,834.47
2016-11-20T08:40:40.825Z,833.36
2016-11-20T08:41:40.825Z,831.32
2016-11-20T08:42:40.818Z,829.97
2016-11-20T08:43:40.835Z,828.48
2016-11-20T08:44:40.818Z,827.8
2016-11-20T08:45:40.821Z,826.6
2016-11-20T08:46:40.826Z,825.57
2016-11-20T08:47:40.824Z,824.32
2016-11-20T08:48:40.837Z,823.16
2016-11-20T08:49:40.829Z,821.8
2016-11-20T08:50:40.840Z,819.84
2016-11-20T08:51:40.829Z,818.26
2016-11-20T08:52:40.835Z,816.35
2016-11-20T08:53:40.841Z,814.46
2016-11-20T08:54:40.848Z,812.8
2016-11-20T08:55:40.825Z,811.61
2016-11-20T08:56:40.837Z,810.48
2016-11-20T08:57:40.831Z,809.56
2016-11-20T08:58:40.853Z,808.26
2016-11-20T08:59:40.841Z,807.29
2016-11-20T09:00:40.873Z,807.23
2016-11-20T09:01:40.837Z,806.62
2016-11-20T09:02:40.850Z,806.38
2016-11-20T09:03:40.849Z,805.74
2016-11-20T09:04:41.097Z,805.54
2016-11-20T09:05:40.857Z,805.31
2016-11-20T09:06:40.834Z,806.7
2016-11-20T09:07:40.838Z,807.41
2016-11-20T09:08:40.853Z,808.43
2016-11-20T09:09:40.857Z,809.86
2016-11-20T09:10:40.844Z,810.75
2016-11-20T09:11:40.841Z,811.43
2016-11-20T09:12:40.853Z,812.09
2016-11-20T09:13:40.858Z,811.91
2016-11-20T09:14:40.850Z,812.54
2016-11-20T09:15:40.847Z,813.15
2016-11-20T09:16:40.850Z,814.18
2016-11-20T09:17:40.847Z,815.21
2016-11-20T09:18:40.846Z,816.29
2016-11-20T09:19:40.858Z,817.57
2016-11-20T09:20:40.852Z,820.06
2016-11-20T09:21:40.841Z,822.41
2016-11-20T09:22:40.906Z,824.98
2016-11-20T09:23:40.853Z,827.98
2016-11-20T09:24:40.866Z,830.8
2016-11-20T09:25:40.861Z,833.25
2016-11-20T09:26:40.854Z,835.45
2016-11-20T09:27:40.867Z,838.03
2016-11-20T09:28:40.873Z,838.67
2016-11-20T09:29:40.892Z,840
2016-11-20T09:30:50.419Z,841.25
2016-11-20T09:31:40.873Z,843.48
2016-11-20T09:32:40.880Z,847.12
2016-11-20T09:33:40.853Z,850.14
2016-11-20T09:34:40.861Z,853.47
2016-11-20T09:35:40.869Z,858.26
2016-11-20T09:36:40.861Z,865.17
2016-11-20T09:37:40.868Z,871.93
2016-11-20T09:38:40.872Z,878.36
2016-11-20T09:39:40.856Z,884.63
2016-11-20T09:40:40.870Z,890.68
2016-11-20T09:41:40.866Z,896.32
2016-11-20T09:42:40.864Z,901.63
2016-11-20T09:43:40.869Z,905.73
2016-11-20T09:44:40.863Z,908.91
2016-11-20T09:45:40.869Z,911.23
2016-11-20T09:46:40.863Z,912.84
2016-11-20T09:47:40.856Z,913.51
2016-11-20T09:48:40.862Z,914.82
2016-11-20T09:49:40.954Z,916.58
2016-11-20T09:50:40.875Z,919.09
2016-11-20T09:51:40.866Z,921.36
2016-11-20T09:52:40.866Z,921.7
2016-11-20T09:53:40.872Z,921.6
2016-11-20T09:54:40.869Z,921.57
2016-11-20T09:55:40.876Z,921.18
2016-11-20T09:56:40.867Z,921.08
2016-11-20T09:57:40.873Z,922.1
2016-11-20T09:58:40.875Z,922.89
2016-11-20T09:59:40.918Z,921.82
2016-11-20T10:00:40.899Z,920.38
2016-11-20T10:01:40.885Z,919.33
2016-11-20T10:02:40.900Z,918.42
2016-11-20T10:03:40.876Z,918.04
2016-11-20T10:04:40.878Z,919.01
2016-11-20T10:05:40.892Z,920.71
2016-11-20T10:06:40.876Z,922.6
2016-11-20T10:07:40.879Z,926.19
2016-11-20T10:08:40.899Z,929.68
2016-11-20T10:09:40.876Z,933.45
2016-11-20T10:10:40.876Z,937.22
2016-11-20T10:11:40.891Z,940.93
2016-11-20T10:12:40.901Z,944.49
2016-11-20T10:13:40.882Z,947.16
2016-11-20T10:14:40.927Z,949.85
2016-11-20T10:15:40.924Z,953.09
2016-11-20T10:16:40.975Z,955.38
2016-11-20T10:17:40.883Z,957.35
2016-11-20T10:18:40.883Z,957.88
2016-11-20T10:19:40.899Z,959.29
2016-11-20T10:20:41.010Z,960.59
2016-11-20T10:21:40.895Z,961.48
2016-11-20T10:22:43.721Z,962.46
2016-11-20T10:23:41.169Z,964.13
2016-11-20T10:24:40.978Z,965.6
2016-11-20T10:25:40.901Z,967.31
2016-11-20T10:26:40.991Z,970.3
2016-11-20T10:27:40.933Z,972.06
2016-11-20T10:28:40.917Z,973.33
2016-11-20T10:29:40.896Z,974.94
2016-11-20T10:30:41.010Z,976.08
2016-11-20T10:31:40.975Z,977.08
2016-11-20T10:32:40.896Z,977.95
2016-11-20T10:33:40.923Z,977.63
2016-11-20T10:34:40.926Z,976.83
2016-11-20T10:35:40.933Z,976.48
2016-11-20T10:36:41.029Z,974.95
2016-11-20T10:37:43.522Z,972.83
2016-11-20T10:38:42.904Z,971.17
2016-11-20T10:39:43.012Z,969.86
2016-11-20T10:40:42.070Z,969.13
2016-11-20T10:41:42.864Z,968.82
2016-11-20T10:42:40.901Z,968.51
2016-11-20T10:43:43.074Z,967.85
2016-11-20T10:44:43.567Z,966.99
2016-11-20T10:45:43.004Z,966.18
2016-11-20T10:46:43.666Z,965.15
2016-11-20T10:47:43.756Z,963.54
2016-11-20T10:48:43.280Z,961.19
2016-11-20T10:49:43.296Z,960.67
2016-11-20T10:50:43.644Z,960.84
2016-11-20T10:51:43.477Z,960.89
2016-11-20T10:52:43.586Z,961.29
2016-11-20T10:53:43.776Z,962.15
2016-11-20T10:54:43.604Z,962.93
2016-11-20T10:55:44.053Z,963.36
2016-11-20T10:56:43.539Z,963.52
2016-11-20T10:57:43.698Z,963.6
2016-11-20T10:58:40.930Z,963.4
2016-11-20T10:59:40.946Z,963.07
2016-11-20T11:00:40.950Z,962.67
2016-11-20T11:01:40.946Z,962.04
2016-11-20T11:02:40.922Z,961.57
2016-11-20T11:03:40.928Z,962.07
2016-11-20T11:04:40.939Z,961.86
2016-11-20T11:05:40.933Z,962.77
2016-11-20T11:06:40.923Z,962.95
2016-11-20T11:07:40.936Z,962.82
2016-11-20T11:08:40.939Z,963.64
2016-11-20T11:09:40.950Z,964.54
2016-11-20T11:10:40.936Z,965.76
2016-11-20T11:11:40.953Z,969.12
2016-11-20T11:12:40.944Z,972.62
2016-11-20T11:13:40.939Z,976.36
2016-11-20T11:14:41.055Z,981.23
2016-11-20T11:15:41.055Z,987.4
2016-11-20T11:16:40.940Z,995.44
2016-11-20T11:17:41.148Z,1001.74
2016-11-20T11:18:41.173Z,1007.48
2016-11-20T11:19:41.152Z,1012.24
2016-11-20T11:20:41.050Z,1017.94
2016-11-20T11:21:41.034Z,1023.76
2016-11-20T11:22:41.080Z,1028.23
2016-11-20T11:23:41.085Z,1030.4
2016-11-20T11:24:41.093Z,1032.76
2016-11-20T11:25:41.020Z,1034.32
2016-11-20T11:26:40.978Z,1035.51
2016-11-20T11:27:42.883Z,1036.54
2016-11-20T11:28:43.016Z,1038.3
2016-11-20T11:29:43.085Z,1040.65
2016-11-20T11:30:43.203Z,1041.44
2016-11-20T11:31:43.384Z,1042.65
2016-11-20T11:32:43.701Z,1042.7
2016-11-20T11:33:43.358Z,1042.21
2016-11-20T11:34:43.732Z,1041.78
2016-11-20T11:35:43.803Z,1041.21
2016-11-20T11:36:43.492Z,1040.53
2016-11-20T11:37:43.447Z,1039.62
2016-11-20T11:38:43.786Z,1038.37
2016-11-20T11:39:43.240Z,1038.54
2016-11-20T11:40:43.735Z,1037.95
2016-11-20T11:41:43.861Z,1036.99
2016-11-20T11:42:43.816Z,1036.21
2016-11-20T11:43:41.784Z,1036.48
2016-11-20T11:44:43.546Z,1037.16
2016-11-20T11:45:43.329Z,1037.26
2016-11-20T11:46:42.597Z,1036.43
2016-11-20T11:47:43.551Z,1035.95
2016-11-20T11:48:43.510Z,1034.64
2016-11-20T11:49:41.010Z,1033.29
2016-11-20T11:50:41.293Z,1032.06
2016-11-20T11:51:40.971Z,1030.51
2016-11-20T11:52:41.001Z,1029.84
2016-11-20T11:53:40.973Z,1028.39
2016-11-20T11:54:40.989Z,1027.36
2016-11-20T11:55:40.985Z,1025.84
2016-11-20T11:56:40.978Z,1025.19
2016-11-20T11:57:40.973Z,1024.44
2016-11-20T11:58:40.996Z,1023.63
2016-11-20T11:59:40.999Z,1022.51
2016-11-20T12:00:41.038Z,1022.77
2016-11-20T12:01:41.001Z,1022.73
2016-11-20T12:02:40.989Z,1023.44
2016-11-20T12:03:41.127Z,1023.26
2016-11-20T12:04:41.005Z,1023.22
2016-11-20T12:05:41.443Z,1023.18
2016-11-20T12:06:43.742Z,1024.25
2016-11-20T12:07:44.815Z,1024.34
2016-11-20T12:08:40.981Z,1025.27
2016-11-20T12:09:43.199Z,1026.2
2016-11-20T12:10:43.081Z,1027.45
2016-11-20T12:11:42.959Z,1028.66
2016-11-20T12:12:42.914Z,1030.4
2016-11-20T12:13:53.029Z,1032.92
2016-11-20T12:14:53.743Z,1034.95
2016-11-20T12:16:14.668Z,1038.7
2016-11-20T12:17:37.087Z,1042.94
2016-11-20T12:18:54.590Z,1045.19
2016-11-20T12:20:13.755Z,1047.78
2016-11-20T12:21:33.907Z,1049.67
2016-11-20T12:22:23.756Z,1051.23
2016-11-20T12:23:36.621Z,1053.61
2016-11-20T12:24:59.085Z,1056.09
2016-11-20T12:26:21.024Z,1058.35
2016-11-20T12:27:43.138Z,1061.12
2016-11-20T12:29:03.450Z,1064.04
2016-11-20T12:30:24.684Z,1066.54
2016-11-20T12:31:44.621Z,1069.19
2016-11-20T12:33:04.290Z,1071.18